Terminal Aerodrome Forecast
Issued by NWS

Home | Current Version | Previous Version | Text Only | Print | Product List | Glossary On
Versions: 1 2 3 4 5 6 7 8 9 10 11 12 13 14 15 16 17 18 19 20 21 22 23 24 25 26 27 28 29
000
FTUS41 KRNK 272328
TAFBCB
TAF
KBCB 272328Z 2800/2824 00000KT P6SM BKN060 BKN120
     FM280700 00000KT P6SM BKN035 OVC050
     FM281300 00000KT P6SM -SHRA SCT020 OVC035
     FM281600 VRB03KT 5SM -RA BR OVC020
     FM282000 32003KT 3SM -RA BR SCT007 OVC015=

USA.gov is the U.S. government's official web portal to all federal, state and local government web resources and services.